sensor_id;sensor_type;location;lat;lon;timestamp;P1;P2;P0
50587;PMS7003;70782;50.514;30.816;2023-07-31T00:00:32;17.27;15.55;12.27
50587;PMS7003;70782;50.514;30.816;2023-07-31T00:01:35;16.82;16.09;12.27
50587;PMS7003;70782;50.514;30.816;2023-07-31T00:02:37;15.80;15.80;12.10
50587;PMS7003;70782;50.514;30.816;2023-07-31T00:03:40;15.90;14.70;11.80
50587;PMS7003;70782;50.514;30.816;2023-07-31T00:04:42;8.80;8.20;6.10
50587;PMS7003;70782;50.514;30.816;2023-07-31T00:05:45;15.10;14.70;10.70
50587;PMS7003;70782;50.514;30.816;2023-07-31T00:06:47;14.20;14.10;11.50
50587;PMS7003;70782;50.514;30.816;2023-07-31T00:07:49;14.00;14.00;11.30
50587;PMS7003;70782;50.514;30.816;2023-07-31T00:08:52;15.00;14.80;11.60
50587;PMS7003;70782;50.514;30.816;2023-07-31T00:09:54;15.60;14.70;11.80
50587;PMS7003;70782;50.514;30.816;2023-07-31T00:10:56;14.90;14.90;11.00
50587;PMS7003;70782;50.514;30.816;2023-07-31T00:11:59;14.70;14.70;11.60
50587;PMS7003;70782;50.514;30.816;2023-07-31T00:13:01;16.30;15.50;10.90
50587;PMS7003;70782;50.514;30.816;2023-07-31T00:14:03;16.40;16.40;13.70
50587;PMS7003;70782;50.514;30.816;2023-07-31T00:15:06;16.00;16.00;12.60
50587;PMS7003;70782;50.514;30.816;2023-07-31T00:16:10;16.60;16.60;12.60
50587;PMS7003;70782;50.514;30.816;2023-07-31T00:17:12;19.20;17.70;13.00
50587;PMS7003;70782;50.514;30.816;2023-07-31T00:18:14;16.70;16.10;13.10
50587;PMS7003;70782;50.514;30.816;2023-07-31T00:19:17;15.60;14.20;12.50
50587;PMS7003;70782;50.514;30.816;2023-07-31T00:20:19;16.70;16.70;12.50
50587;PMS7003;70782;50.514;30.816;2023-07-31T00:21:21;16.00;15.30;12.20
50587;PMS7003;70782;50.514;30.816;2023-07-31T00:22:23;15.10;14.40;12.10
50587;PMS7003;70782;50.514;30.816;2023-07-31T00:23:26;17.10;16.80;13.20
50587;PMS7003;70782;50.514;30.816;2023-07-31T00:24:28;17.80;15.90;12.60
50587;PMS7003;70782;50.514;30.816;2023-07-31T00:25:30;14.80;14.80;12.30
50587;PMS7003;70782;50.514;30.816;2023-07-31T00:26:32;14.40;14.00;11.40
50587;PMS7003;70782;50.514;30.816;2023-07-31T00:27:35;17.70;16.20;13.20
50587;PMS7003;70782;50.514;30.816;2023-07-31T00:28:37;19.00;17.80;13.40
50587;PMS7003;70782;50.514;30.816;2023-07-31T00:29:39;14.50;13.60;10.80
50587;PMS7003;70782;50.514;30.816;2023-07-31T00:30:42;15.40;15.10;11.50
50587;PMS7003;70782;50.514;30.816;2023-07-31T00:31:44;14.40;14.20;11.30
50587;PMS7003;70782;50.514;30.816;2023-07-31T00:32:46;17.00;15.50;12.20
50587;PMS7003;70782;50.514;30.816;2023-07-31T00:33:49;15.70;15.70;13.20
50587;PMS7003;70782;50.514;30.816;2023-07-31T00:34:51;14.20;14.20;11.20
50587;PMS7003;70782;50.514;30.816;2023-07-31T00:35:53;14.20;13.60;11.10
50587;PMS7003;70782;50.514;30.816;2023-07-31T00:36:55;14.80;13.60;11.00
50587;PMS7003;70782;50.514;30.816;2023-07-31T00:37:57;15.60;15.60;11.40
50587;PMS7003;70782;50.514;30.816;2023-07-31T00:39:00;13.20;12.40;10.40
50587;PMS7003;70782;50.514;30.816;2023-07-31T00:40:02;15.60;15.20;11.50
50587;PMS7003;70782;50.514;30.816;2023-07-31T00:41:05;15.70;15.60;12.60
50587;PMS7003;70782;50.514;30.816;2023-07-31T00:42:07;16.40;15.80;12.10
50587;PMS7003;70782;50.514;30.816;2023-07-31T00:43:09;15.20;15.20;11.70
50587;PMS7003;70782;50.514;30.816;2023-07-31T00:44:12;13.90;13.90;10.70
50587;PMS7003;70782;50.514;30.816;2023-07-31T00:45:14;14.60;13.80;11.30
50587;PMS7003;70782;50.514;30.816;2023-07-31T00:46:16;14.70;14.70;12.50
50587;PMS7003;70782;50.514;30.816;2023-07-31T00:47:19;15.20;15.20;11.50
50587;PMS7003;70782;50.514;30.816;2023-07-31T00:48:21;17.20;15.30;12.30
50587;PMS7003;70782;50.514;30.816;2023-07-31T00:49:24;17.00;16.10;12.10
50587;PMS7003;70782;50.514;30.816;2023-07-31T00:50:26;13.90;13.90;10.50
50587;PMS7003;70782;50.514;30.816;2023-07-31T00:51:29;14.60;14.60;11.80
50587;PMS7003;70782;50.514;30.816;2023-07-31T00:52:31;16.20;15.30;11.50
50587;PMS7003;70782;50.514;30.816;2023-07-31T00:53:34;13.70;13.70;10.70
50587;PMS7003;70782;50.514;30.816;2023-07-31T00:54:37;14.50;14.50;11.20
50587;PMS7003;70782;50.514;30.816;2023-07-31T00:55:41;12.30;12.20;10.30
50587;PMS7003;70782;50.514;30.816;2023-07-31T00:56:44;12.70;12.70;9.60
50587;PMS7003;70782;50.514;30.816;2023-07-31T00:57:47;12.00;12.00;10.40
50587;PMS7003;70782;50.514;30.816;2023-07-31T00:58:50;11.20;11.20;8.50
50587;PMS7003;70782;50.514;30.816;2023-07-31T00:59:52;12.70;12.50;10.10
50587;PMS7003;70782;50.514;30.816;2023-07-31T01:00:55;12.80;12.00;9.50
50587;PMS7003;70782;50.514;30.816;2023-07-31T01:01:57;12.50;12.50;9.40
50587;PMS7003;70782;50.514;30.816;2023-07-31T01:03:00;11.82;11.55;8.91
50587;PMS7003;70782;50.514;30.816;2023-07-31T01:04:03;10.60;9.80;8.40
50587;PMS7003;70782;50.514;30.816;2023-07-31T01:05:05;11.18;11.18;8.73
50587;PMS7003;70782;50.514;30.816;2023-07-31T01:06:19;11.40;10.50;7.40
50587;PMS7003;70782;50.514;30.816;2023-07-31T01:11:48;10.30;10.30;8.50
50587;PMS7003;70782;50.514;30.816;2023-07-31T01:12:55;9.30;9.30;7.30
50587;PMS7003;70782;50.514;30.816;2023-07-31T01:13:58;10.10;9.20;7.30
50587;PMS7003;70782;50.514;30.816;2023-07-31T01:15:02;8.18;8.18;6.73
50587;PMS7003;70782;50.514;30.816;2023-07-31T01:16:05;9.60;9.60;6.50
50587;PMS7003;70782;50.514;30.816;2023-07-31T01:17:07;9.10;9.10;7.30
50587;PMS7003;70782;50.514;30.816;2023-07-31T01:18:10;11.40;9.70;7.90
50587;PMS7003;70782;50.514;30.816;2023-07-31T01:19:12;9.40;9.40;7.10
50587;PMS7003;70782;50.514;30.816;2023-07-31T01:20:17;10.90;9.90;7.80
50587;PMS7003;70782;50.514;30.816;2023-07-31T01:24:20;11.60;9.10;7.70
50587;PMS7003;70782;50.514;30.816;2023-07-31T01:26:00;9.10;9.00;8.10
50587;PMS7003;70782;50.514;30.816;2023-07-31T01:28:23;12.10;12.10;10.20
50587;PMS7003;70782;50.514;30.816;2023-07-31T01:29:38;15.10;14.30;10.60
50587;PMS7003;70782;50.514;30.816;2023-07-31T01:30:47;12.30;12.30;9.70
50587;PMS7003;70782;50.514;30.816;2023-07-31T01:31:50;12.30;11.70;9.20
50587;PMS7003;70782;50.514;30.816;2023-07-31T01:32:55;12.00;12.00;9.10
50587;PMS7003;70782;50.514;30.816;2023-07-31T01:34:00;11.45;11.45;8.82
50587;PMS7003;70782;50.514;30.816;2023-07-31T01:35:02;12.20;11.60;8.40
50587;PMS7003;70782;50.514;30.816;2023-07-31T01:36:05;11.80;11.50;9.20
50587;PMS7003;70782;50.514;30.816;2023-07-31T01:37:08;13.00;12.00;9.64
50587;PMS7003;70782;50.514;30.816;2023-07-31T01:38:11;11.50;11.50;9.00
50587;PMS7003;70782;50.514;30.816;2023-07-31T01:39:13;9.80;9.80;8.20
50587;PMS7003;70782;50.514;30.816;2023-07-31T01:40:16;10.73;10.73;7.73
50587;PMS7003;70782;50.514;30.816;2023-07-31T01:41:18;10.70;10.30;7.80
50587;PMS7003;70782;50.514;30.816;2023-07-31T01:42:20;13.40;10.50;8.60
50587;PMS7003;70782;50.514;30.816;2023-07-31T01:43:22;10.80;10.80;8.70
50587;PMS7003;70782;50.514;30.816;2023-07-31T01:44:24;12.44;12.44;9.22
50587;PMS7003;70782;50.514;30.816;2023-07-31T01:45:27;11.20;10.70;8.10
50587;PMS7003;70782;50.514;30.816;2023-07-31T01:46:29;9.90;9.80;7.80
50587;PMS7003;70782;50.514;30.816;2023-07-31T01:47:31;13.60;11.50;9.10
50587;PMS7003;70782;50.514;30.816;2023-07-31T01:48:34;10.90;10.00;8.30
50587;PMS7003;70782;50.514;30.816;2023-07-31T01:49:36;11.70;11.70;8.70
50587;PMS7003;70782;50.514;30.816;2023-07-31T01:50:38;12.70;12.70;9.20
50587;PMS7003;70782;50.514;30.816;2023-07-31T01:51:41;13.18;13.00;9.45
50587;PMS7003;70782;50.514;30.816;2023-07-31T01:52:43;12.10;12.10;8.40
50587;PMS7003;70782;50.514;30.816;2023-07-31T01:53:46;15.64;14.18;10.64
50587;PMS7003;70782;50.514;30.816;2023-07-31T01:54:48;14.00;13.20;9.80
50587;PMS7003;70782;50.514;30.816;2023-07-31T01:55:51;13.30;12.70;8.90
50587;PMS7003;70782;50.514;30.816;2023-07-31T01:56:53;14.20;14.00;10.60
50587;PMS7003;70782;50.514;30.816;2023-07-31T01:57:55;13.20;12.20;9.70
50587;PMS7003;70782;50.514;30.816;2023-07-31T01:58:58;12.50;12.50;8.40
50587;PMS7003;70782;50.514;30.816;2023-07-31T02:00:00;13.00;12.40;9.30
50587;PMS7003;70782;50.514;30.816;2023-07-31T02:01:04;14.30;13.80;9.30
50587;PMS7003;70782;50.514;30.816;2023-07-31T02:02:08;12.90;12.90;10.00
50587;PMS7003;70782;50.514;30.816;2023-07-31T02:03:11;14.30;13.80;10.80
50587;PMS7003;70782;50.514;30.816;2023-07-31T02:04:13;14.20;13.50;9.80
50587;PMS7003;70782;50.514;30.816;2023-07-31T02:05:15;14.20;11.90;9.10
50587;PMS7003;70782;50.514;30.816;2023-07-31T02:06:18;13.30;13.30;9.50
50587;PMS7003;70782;50.514;30.816;2023-07-31T02:07:20;13.30;13.30;8.60
50587;PMS7003;70782;50.514;30.816;2023-07-31T02:08:22;15.50;15.10;10.50
50587;PMS7003;70782;50.514;30.816;2023-07-31T02:09:25;15.10;15.00;10.40
50587;PMS7003;70782;50.514;30.816;2023-07-31T02:10:27;15.20;15.20;10.60
50587;PMS7003;70782;50.514;30.816;2023-07-31T02:11:29;14.40;13.90;9.60
50587;PMS7003;70782;50.514;30.816;2023-07-31T02:12:31;14.50;14.50;11.00
50587;PMS7003;70782;50.514;30.816;2023-07-31T02:13:34;13.20;13.20;9.20
50587;PMS7003;70782;50.514;30.816;2023-07-31T02:14:37;13.60;13.50;9.60
50587;PMS7003;70782;50.514;30.816;2023-07-31T02:15:39;14.20;12.60;9.50
50587;PMS7003;70782;50.514;30.816;2023-07-31T02:16:42;14.60;13.00;9.30
50587;PMS7003;70782;50.514;30.816;2023-07-31T02:17:44;13.60;13.30;10.00
50587;PMS7003;70782;50.514;30.816;2023-07-31T02:18:47;14.10;13.30;9.30
50587;PMS7003;70782;50.514;30.816;2023-07-31T02:19:49;13.60;12.70;8.80
50587;PMS7003;70782;50.514;30.816;2023-07-31T02:20:52;14.91;14.36;10.73
50587;PMS7003;70782;50.514;30.816;2023-07-31T02:21:54;14.00;13.80;10.20
50587;PMS7003;70782;50.514;30.816;2023-07-31T02:22:57;14.00;13.64;10.55
50587;PMS7003;70782;50.514;30.816;2023-07-31T02:24:00;14.40;13.90;10.60
50587;PMS7003;70782;50.514;30.816;2023-07-31T02:25:03;15.30;14.30;9.70
50587;PMS7003;70782;50.514;30.816;2023-07-31T02:26:06;14.90;13.50;10.00
50587;PMS7003;70782;50.514;30.816;2023-07-31T02:27:08;14.70;13.70;10.30
50587;PMS7003;70782;50.514;30.816;2023-07-31T02:28:11;16.10;14.20;10.90
50587;PMS7003;70782;50.514;30.816;2023-07-31T02:29:13;12.80;12.20;8.60
50587;PMS7003;70782;50.514;30.816;2023-07-31T02:30:15;14.10;14.10;10.40
50587;PMS7003;70782;50.514;30.816;2023-07-31T02:31:19;14.10;13.80;9.90
50587;PMS7003;70782;50.514;30.816;2023-07-31T02:32:23;14.70;14.70;10.60
50587;PMS7003;70782;50.514;30.816;2023-07-31T02:33:25;13.20;13.20;9.70
50587;PMS7003;70782;50.514;30.816;2023-07-31T02:34:28;13.60;13.20;9.30
50587;PMS7003;70782;50.514;30.816;2023-07-31T02:35:30;13.00;12.40;9.40
50587;PMS7003;70782;50.514;30.816;2023-07-31T02:36:32;12.00;11.20;8.50
50587;PMS7003;70782;50.514;30.816;2023-07-31T02:37:34;15.30;14.60;10.00
50587;PMS7003;70782;50.514;30.816;2023-07-31T02:38:37;13.10;13.10;9.60
50587;PMS7003;70782;50.514;30.816;2023-07-31T02:39:41;15.20;13.00;9.20
50587;PMS7003;70782;50.514;30.816;2023-07-31T02:40:43;13.00;12.70;10.10
50587;PMS7003;70782;50.514;30.816;2023-07-31T02:41:46;15.36;14.82;10.45
50587;PMS7003;70782;50.514;30.816;2023-07-31T02:42:48;13.90;13.90;9.80
50587;PMS7003;70782;50.514;30.816;2023-07-31T02:43:51;13.27;13.09;10.36
50587;PMS7003;70782;50.514;30.816;2023-07-31T02:44:54;11.80;11.80;8.90
50587;PMS7003;70782;50.514;30.816;2023-07-31T02:45:56;13.30;13.30;9.60
50587;PMS7003;70782;50.514;30.816;2023-07-31T02:46:59;13.10;13.10;9.20
50587;PMS7003;70782;50.514;30.816;2023-07-31T02:48:01;11.00;10.30;7.60
50587;PMS7003;70782;50.514;30.816;2023-07-31T02:49:04;11.50;10.70;8.50
50587;PMS7003;70782;50.514;30.816;2023-07-31T02:50:06;13.40;13.40;9.40
50587;PMS7003;70782;50.514;30.816;2023-07-31T02:51:09;14.30;12.90;8.70
50587;PMS7003;70782;50.514;30.816;2023-07-31T02:52:11;12.30;12.20;9.60
50587;PMS7003;70782;50.514;30.816;2023-07-31T02:53:13;12.30;11.90;8.80
50587;PMS7003;70782;50.514;30.816;2023-07-31T02:54:16;13.30;12.80;9.40
50587;PMS7003;70782;50.514;30.816;2023-07-31T02:55:18;14.40;13.70;9.80
50587;PMS7003;70782;50.514;30.816;2023-07-31T02:56:21;15.20;14.40;11.20
50587;PMS7003;70782;50.514;30.816;2023-07-31T02:57:23;14.30;14.20;9.70
50587;PMS7003;70782;50.514;30.816;2023-07-31T02:58:25;13.70;12.70;9.50
50587;PMS7003;70782;50.514;30.816;2023-07-31T02:59:27;12.00;12.00;8.80
50587;PMS7003;70782;50.514;30.816;2023-07-31T03:00:32;11.70;11.40;8.90
50587;PMS7003;70782;50.514;30.816;2023-07-31T03:01:34;12.50;12.20;9.20
50587;PMS7003;70782;50.514;30.816;2023-07-31T03:02:36;13.70;12.70;8.90
50587;PMS7003;70782;50.514;30.816;2023-07-31T03:03:39;13.30;13.00;9.20
50587;PMS7003;70782;50.514;30.816;2023-07-31T03:04:43;12.40;12.10;9.10
50587;PMS7003;70782;50.514;30.816;2023-07-31T03:05:45;10.60;10.60;8.40
50587;PMS7003;70782;50.514;30.816;2023-07-31T03:06:48;13.10;12.80;9.00
50587;PMS7003;70782;50.514;30.816;2023-07-31T03:07:50;12.60;12.60;9.20
50587;PMS7003;70782;50.514;30.816;2023-07-31T03:08:52;13.60;12.60;9.40
50587;PMS7003;70782;50.514;30.816;2023-07-31T03:09:55;13.55;12.73;9.55
50587;PMS7003;70782;50.514;30.816;2023-07-31T03:10:58;11.30;11.30;8.20
50587;PMS7003;70782;50.514;30.816;2023-07-31T03:12:00;12.70;11.80;9.00
50587;PMS7003;70782;50.514;30.816;2023-07-31T03:13:03;12.60;11.70;8.40
50587;PMS7003;70782;50.514;30.816;2023-07-31T03:14:05;11.80;11.70;8.80
50587;PMS7003;70782;50.514;30.816;2023-07-31T03:15:08;11.10;11.10;9.00
50587;PMS7003;70782;50.514;30.816;2023-07-31T03:16:11;10.80;10.80;8.40
50587;PMS7003;70782;50.514;30.816;2023-07-31T03:17:13;11.80;11.70;8.40
50587;PMS7003;70782;50.514;30.816;2023-07-31T03:18:17;12.90;12.40;9.00
50587;PMS7003;70782;50.514;30.816;2023-07-31T03:19:19;13.80;12.50;9.20
50587;PMS7003;70782;50.514;30.816;2023-07-31T03:20:21;14.50;12.30;8.20
50587;PMS7003;70782;50.514;30.816;2023-07-31T03:21:23;10.78;10.56;7.56
50587;PMS7003;70782;50.514;30.816;2023-07-31T03:22:25;11.00;10.30;7.70
50587;PMS7003;70782;50.514;30.816;2023-07-31T03:23:28;12.00;11.70;8.70
50587;PMS7003;70782;50.514;30.816;2023-07-31T03:24:30;10.80;10.80;7.90
50587;PMS7003;70782;50.514;30.816;2023-07-31T03:25:32;12.20;12.20;9.40
50587;PMS7003;70782;50.514;30.816;2023-07-31T03:26:35;10.80;10.80;7.90
50587;PMS7003;70782;50.514;30.816;2023-07-31T03:27:37;12.70;11.50;9.10
50587;PMS7003;70782;50.514;30.816;2023-07-31T03:28:39;12.10;11.70;8.60
50587;PMS7003;70782;50.514;30.816;2023-07-31T03:29:41;12.70;12.70;9.20
50587;PMS7003;70782;50.514;30.816;2023-07-31T03:30:44;15.20;11.60;8.80
50587;PMS7003;70782;50.514;30.816;2023-07-31T03:31:46;11.70;11.70;8.70
50587;PMS7003;70782;50.514;30.816;2023-07-31T03:32:48;11.10;8.80;6.80
50587;PMS7003;70782;50.514;30.816;2023-07-31T03:33:51;12.40;11.50;9.20
50587;PMS7003;70782;50.514;30.816;2023-07-31T03:34:53;13.20;12.20;8.30
50587;PMS7003;70782;50.514;30.816;2023-07-31T03:35:55;13.90;13.90;9.00
50587;PMS7003;70782;50.514;30.816;2023-07-31T03:36:58;13.00;11.80;8.50
50587;PMS7003;70782;50.514;30.816;2023-07-31T03:38:00;12.50;12.50;9.00
50587;PMS7003;70782;50.514;30.816;2023-07-31T03:39:03;13.80;12.80;9.20
50587;PMS7003;70782;50.514;30.816;2023-07-31T03:40:06;13.00;12.30;8.40
50587;PMS7003;70782;50.514;30.816;2023-07-31T03:41:09;13.20;12.10;8.30
50587;PMS7003;70782;50.514;30.816;2023-07-31T03:42:11;12.60;12.60;9.20
50587;PMS7003;70782;50.514;30.816;2023-07-31T03:43:14;12.50;12.20;8.90
50587;PMS7003;70782;50.514;30.816;2023-07-31T03:44:17;12.40;12.40;8.80
50587;PMS7003;70782;50.514;30.816;2023-07-31T03:45:20;12.50;12.20;8.40
50587;PMS7003;70782;50.514;30.816;2023-07-31T03:46:22;11.20;10.70;8.10
50587;PMS7003;70782;50.514;30.816;2023-07-31T03:47:26;8.80;8.80;6.80
50587;PMS7003;70782;50.514;30.816;2023-07-31T03:48:28;11.30;11.30;8.70
50587;PMS7003;70782;50.514;30.816;2023-07-31T03:49:31;11.20;11.20;8.10
50587;PMS7003;70782;50.514;30.816;2023-07-31T03:50:33;11.90;11.90;8.70
50587;PMS7003;70782;50.514;30.816;2023-07-31T03:51:36;11.20;11.20;8.30
50587;PMS7003;70782;50.514;30.816;2023-07-31T03:52:38;11.60;11.10;8.60
50587;PMS7003;70782;50.514;30.816;2023-07-31T03:53:40;11.20;11.10;8.50
50587;PMS7003;70782;50.514;30.816;2023-07-31T03:54:43;11.40;11.40;9.00
50587;PMS7003;70782;50.514;30.816;2023-07-31T03:55:45;11.30;11.10;8.20
50587;PMS7003;70782;50.514;30.816;2023-07-31T03:56:47;12.10;12.10;9.10
50587;PMS7003;70782;50.514;30.816;2023-07-31T03:57:50;13.20;11.60;9.50
50587;PMS7003;70782;50.514;30.816;2023-07-31T03:58:52;13.30;13.30;11.00
50587;PMS7003;70782;50.514;30.816;2023-07-31T03:59:54;16.00;15.70;11.70
50587;PMS7003;70782;50.514;30.816;2023-07-31T04:00:57;13.80;13.80;10.40
50587;PMS7003;70782;50.514;30.816;2023-07-31T04:01:59;16.00;13.30;10.70
50587;PMS7003;70782;50.514;30.816;2023-07-31T04:03:02;11.60;11.60;8.70
50587;PMS7003;70782;50.514;30.816;2023-07-31T04:04:04;11.00;10.50;8.00
50587;PMS7003;70782;50.514;30.816;2023-07-31T04:05:07;12.00;12.00;7.60
50587;PMS7003;70782;50.514;30.816;2023-07-31T04:06:09;11.82;11.82;8.36
50587;PMS7003;70782;50.514;30.816;2023-07-31T04:07:12;12.00;10.90;7.50
50587;PMS7003;70782;50.514;30.816;2023-07-31T04:08:14;10.50;10.50;8.00
50587;PMS7003;70782;50.514;30.816;2023-07-31T04:09:16;14.20;11.60;8.00
50587;PMS7003;70782;50.514;30.816;2023-07-31T04:10:19;13.30;12.50;8.60
50587;PMS7003;70782;50.514;30.816;2023-07-31T04:11:21;12.20;12.10;8.60
50587;PMS7003;70782;50.514;30.816;2023-07-31T04:12:23;12.00;11.00;8.20
50587;PMS7003;70782;50.514;30.816;2023-07-31T04:13:26;13.40;11.70;9.20
50587;PMS7003;70782;50.514;30.816;2023-07-31T04:14:28;13.70;13.00;8.60
50587;PMS7003;70782;50.514;30.816;2023-07-31T04:15:30;10.60;10.50;8.10
50587;PMS7003;70782;50.514;30.816;2023-07-31T04:16:32;14.80;14.50;11.00
50587;PMS7003;70782;50.514;30.816;2023-07-31T04:17:35;13.90;12.50;10.10
50587;PMS7003;70782;50.514;30.816;2023-07-31T04:18:37;12.50;11.70;9.50
50587;PMS7003;70782;50.514;30.816;2023-07-31T04:19:39;12.60;12.60;9.50
50587;PMS7003;70782;50.514;30.816;2023-07-31T04:20:42;12.73;12.73;9.27
50587;PMS7003;70782;50.514;30.816;2023-07-31T04:21:44;10.60;10.60;7.50
50587;PMS7003;70782;50.514;30.816;2023-07-31T04:22:46;11.60;10.60;7.80
50587;PMS7003;70782;50.514;30.816;2023-07-31T04:23:49;11.90;11.40;8.80
50587;PMS7003;70782;50.514;30.816;2023-07-31T04:24:51;12.40;11.30;7.90
50587;PMS7003;70782;50.514;30.816;2023-07-31T04:25:53;13.30;13.30;10.60
50587;PMS7003;70782;50.514;30.816;2023-07-31T04:26:55;11.90;11.50;8.50
50587;PMS7003;70782;50.514;30.816;2023-07-31T04:27:57;13.80;12.80;9.00
50587;PMS7003;70782;50.514;30.816;2023-07-31T04:29:00;11.50;11.00;8.40
50587;PMS7003;70782;50.514;30.816;2023-07-31T04:30:02;12.50;12.50;8.70
50587;PMS7003;70782;50.514;30.816;2023-07-31T04:31:05;13.20;12.70;8.80
50587;PMS7003;70782;50.514;30.816;2023-07-31T04:32:08;11.70;11.70;9.00
50587;PMS7003;70782;50.514;30.816;2023-07-31T04:33:10;13.60;12.90;8.90
50587;PMS7003;70782;50.514;30.816;2023-07-31T04:34:12;13.30;12.30;8.70
50587;PMS7003;70782;50.514;30.816;2023-07-31T04:35:15;13.30;12.50;9.20
50587;PMS7003;70782;50.514;30.816;2023-07-31T04:36:17;12.50;12.50;9.40
50587;PMS7003;70782;50.514;30.816;2023-07-31T04:37:19;12.40;12.40;9.30
50587;PMS7003;70782;50.514;30.816;2023-07-31T04:38:22;14.90;13.40;10.20
50587;PMS7003;70782;50.514;30.816;2023-07-31T04:39:24;14.30;14.30;10.10
50587;PMS7003;70782;50.514;30.816;2023-07-31T04:40:27;11.30;10.50;8.60
50587;PMS7003;70782;50.514;30.816;2023-07-31T04:41:29;14.40;14.00;9.80
50587;PMS7003;70782;50.514;30.816;2023-07-31T04:42:31;14.20;13.80;9.90
50587;PMS7003;70782;50.514;30.816;2023-07-31T04:43:35;13.50;13.50;9.90
50587;PMS7003;70782;50.514;30.816;2023-07-31T04:44:37;12.60;12.60;9.30
50587;PMS7003;70782;50.514;30.816;2023-07-31T04:45:42;13.60;11.90;8.90
50587;PMS7003;70782;50.514;30.816;2023-07-31T04:46:46;16.20;15.20;10.50
50587;PMS7003;70782;50.514;30.816;2023-07-31T04:47:49;15.60;15.60;10.80
50587;PMS7003;70782;50.514;30.816;2023-07-31T04:48:51;18.90;15.80;11.20
50587;PMS7003;70782;50.514;30.816;2023-07-31T04:49:53;14.00;14.00;9.90
50587;PMS7003;70782;50.514;30.816;2023-07-31T04:50:56;15.70;15.40;11.50
50587;PMS7003;70782;50.514;30.816;2023-07-31T04:51:58;15.50;14.40;10.30
50587;PMS7003;70782;50.514;30.816;2023-07-31T04:53:00;14.50;14.10;10.00
50587;PMS7003;70782;50.514;30.816;2023-07-31T04:54:03;13.50;13.50;10.40
50587;PMS7003;70782;50.514;30.816;2023-07-31T04:55:05;14.90;14.40;10.30
50587;PMS7003;70782;50.514;30.816;2023-07-31T04:56:08;14.20;13.80;9.80
50587;PMS7003;70782;50.514;30.816;2023-07-31T04:57:14;16.27;14.00;9.64
50587;PMS7003;70782;50.514;30.816;2023-07-31T04:58:16;15.50;14.30;10.20
50587;PMS7003;70782;50.514;30.816;2023-07-31T04:59:18;21.30;20.00;14.70
50587;PMS7003;70782;50.514;30.816;2023-07-31T05:00:21;26.40;26.10;19.10
50587;PMS7003;70782;50.514;30.816;2023-07-31T05:01:25;20.30;19.40;13.30
50587;PMS7003;70782;50.514;30.816;2023-07-31T05:02:27;17.10;17.10;12.30
50587;PMS7003;70782;50.514;30.816;2023-07-31T05:03:29;17.20;17.20;12.50
50587;PMS7003;70782;50.514;30.816;2023-07-31T05:04:32;13.50;13.50;11.00
50587;PMS7003;70782;50.514;30.816;2023-07-31T05:05:34;16.00;15.20;11.00
50587;PMS7003;70782;50.514;30.816;2023-07-31T05:06:38;14.00;13.80;10.80
50587;PMS7003;70782;50.514;30.816;2023-07-31T05:07:41;15.50;14.40;10.00
50587;PMS7003;70782;50.514;30.816;2023-07-31T05:08:44;12.30;12.30;9.50
50587;PMS7003;70782;50.514;30.816;2023-07-31T05:09:46;14.10;14.10;10.30
50587;PMS7003;70782;50.514;30.816;2023-07-31T05:10:48;14.70;14.70;10.20
50587;PMS7003;70782;50.514;30.816;2023-07-31T05:11:52;12.70;12.70;9.00
50587;PMS7003;70782;50.514;30.816;2023-07-31T05:12:54;16.20;15.70;11.00
50587;PMS7003;70782;50.514;30.816;2023-07-31T05:13:56;16.70;16.50;11.50
50587;PMS7003;70782;50.514;30.816;2023-07-31T05:15:00;14.30;13.80;10.00
50587;PMS7003;70782;50.514;30.816;2023-07-31T05:16:03;14.90;14.80;11.00
50587;PMS7003;70782;50.514;30.816;2023-07-31T05:17:05;14.90;14.80;10.20
50587;PMS7003;70782;50.514;30.816;2023-07-31T05:18:08;16.50;15.80;12.80
50587;PMS7003;70782;50.514;30.816;2023-07-31T05:19:11;13.90;13.90;8.90
50587;PMS7003;70782;50.514;30.816;2023-07-31T05:20:14;14.64;14.45;11.91
50587;PMS7003;70782;50.514;30.816;2023-07-31T05:21:16;17.40;16.60;11.40
50587;PMS7003;70782;50.514;30.816;2023-07-31T05:22:19;18.10;17.10;11.40
50587;PMS7003;70782;50.514;30.816;2023-07-31T05:23:21;14.70;14.40;11.30
50587;PMS7003;70782;50.514;30.816;2023-07-31T05:24:24;17.40;16.20;12.20
50587;PMS7003;70782;50.514;30.816;2023-07-31T05:25:26;19.10;16.70;11.50
50587;PMS7003;70782;50.514;30.816;2023-07-31T05:26:28;16.10;16.10;11.60
50587;PMS7003;70782;50.514;30.816;2023-07-31T05:27:31;15.40;14.90;10.30
50587;PMS7003;70782;50.514;30.816;2023-07-31T05:28:34;17.50;17.40;11.70
50587;PMS7003;70782;50.514;30.816;2023-07-31T05:29:38;15.70;15.70;11.50
50587;PMS7003;70782;50.514;30.816;2023-07-31T05:30:51;19.90;17.60;13.50
50587;PMS7003;70782;50.514;30.816;2023-07-31T05:31:53;17.10;17.10;11.70
50587;PMS7003;70782;50.514;30.816;2023-07-31T05:32:56;17.50;17.30;12.40
50587;PMS7003;70782;50.514;30.816;2023-07-31T05:33:58;15.00;14.30;10.50
50587;PMS7003;70782;50.514;30.816;2023-07-31T05:35:00;17.50;17.50;12.30
50587;PMS7003;70782;50.514;30.816;2023-07-31T05:36:03;16.00;16.00;12.20
50587;PMS7003;70782;50.514;30.816;2023-07-31T05:37:05;21.10;18.60;12.20
50587;PMS7003;70782;50.514;30.816;2023-07-31T05:38:07;15.90;15.90;11.40
50587;PMS7003;70782;50.514;30.816;2023-07-31T05:39:10;17.30;17.30;12.40
50587;PMS7003;70782;50.514;30.816;2023-07-31T05:40:13;17.90;17.90;12.00
50587;PMS7003;70782;50.514;30.816;2023-07-31T05:41:16;18.30;16.80;12.30
50587;PMS7003;70782;50.514;30.816;2023-07-31T05:42:18;20.10;19.20;14.40
50587;PMS7003;70782;50.514;30.816;2023-07-31T05:43:20;18.50;18.50;13.00
50587;PMS7003;70782;50.514;30.816;2023-07-31T05:44:23;15.20;15.20;9.90
50587;PMS7003;70782;50.514;30.816;2023-07-31T05:45:26;18.00;18.00;13.20
50587;PMS7003;70782;50.514;30.816;2023-07-31T05:46:28;19.60;18.70;12.10
50587;PMS7003;70782;50.514;30.816;2023-07-31T05:47:30;19.40;19.00;13.80
50587;PMS7003;70782;50.514;30.816;2023-07-31T05:48:33;21.80;20.80;13.80
50587;PMS7003;70782;50.514;30.816;2023-07-31T05:49:35;19.30;18.30;13.10
50587;PMS7003;70782;50.514;30.816;2023-07-31T05:50:37;19.80;18.40;13.30
50587;PMS7003;70782;50.514;30.816;2023-07-31T05:51:41;18.90;18.80;14.20
50587;PMS7003;70782;50.514;30.816;2023-07-31T05:52:43;23.20;19.60;13.90
50587;PMS7003;70782;50.514;30.816;2023-07-31T05:53:49;21.10;19.90;15.00
50587;PMS7003;70782;50.514;30.816;2023-07-31T05:54:51;21.60;21.50;14.60
50587;PMS7003;70782;50.514;30.816;2023-07-31T05:55:54;22.50;21.20;14.10
50587;PMS7003;70782;50.514;30.816;2023-07-31T05:56:56;21.60;19.90;12.10
50587;PMS7003;70782;50.514;30.816;2023-07-31T05:57:59;22.60;21.90;14.40
50587;PMS7003;70782;50.514;30.816;2023-07-31T05:59:03;18.00;18.00;11.30